Time;durP1;ratioP1;P1;durP2;ratioP2;P2;SDS_P1;SDS_P2;PMS_P1;PMS_P2;Temp;Humidity;BMP_temperature;BMP_pressure;BME280_temperature;BME280_humidity;BME280_pressure;Samples;Min_cycle;Max_cycle;Signal;HPM_P1;HPM_P2
2023/07/07 00:01:45;;;;;;;6.28;3.42;;;12.00;99.90;;;;;;5032850;28;20021;-78
2023/07/07 00:04:11;;;;;;;4.40;3.72;;;12.00;99.90;;;;;;5033210;28;20014;-78
2023/07/07 00:06:36;;;;;;;4.05;2.83;;;11.90;99.90;;;;;;5032176;28;20022;-80
2023/07/07 00:09:03;;;;;;;2.85;2.65;;;11.80;99.90;;;;;;5033086;28;20037;-78
2023/07/07 00:11:29;;;;;;;3.83;2.70;;;11.80;99.90;;;;;;5032674;28;20596;-80
2023/07/07 00:13:54;;;;;;;4.05;3.03;;;11.70;99.90;;;;;;5032429;28;20113;-81
2023/07/07 00:16:22;;;;;;;4.30;3.55;;;11.70;99.90;;;;;;5031222;28;20478;-81
2023/07/07 00:18:48;;;;;;;9.65;3.53;;;11.60;99.90;;;;;;5032421;28;20021;-81
2023/07/07 00:21:14;;;;;;;3.03;2.83;;;11.60;99.90;;;;;;5031052;28;20040;-80
2023/07/07 00:23:40;;;;;;;4.05;3.00;;;11.60;99.90;;;;;;5032269;28;20025;-79
2023/07/07 00:26:08;;;;;;;3.05;2.75;;;11.50;99.90;;;;;;5030751;28;20213;-79
2023/07/07 00:28:35;;;;;;;3.83;3.20;;;11.50;99.90;;;;;;5032006;28;20096;-79
2023/07/07 00:31:01;;;;;;;2.65;2.45;;;11.60;99.90;;;;;;5031170;28;20117;-79
2023/07/07 00:33:27;;;;;;;2.70;2.33;;;11.50;99.90;;;;;;5032153;28;20022;-79
2023/07/07 00:35:53;;;;;;;3.83;3.13;;;11.40;99.90;;;;;;5032047;28;20133;-80
2023/07/07 00:38:20;;;;;;;6.53;2.88;;;11.40;99.90;;;;;;5030855;28;20022;-80
2023/07/07 00:40:46;;;;;;;4.30;2.60;;;11.40;99.90;;;;;;5031824;28;20410;-80
2023/07/07 00:43:17;;;;;;;3.22;2.83;;;11.40;99.90;;;;;;5030820;28;20117;-80
2023/07/07 00:45:43;;;;;;;4.25;3.30;;;11.40;99.90;;;;;;5030646;28;20108;-79
2023/07/07 00:48:18;;;;;;;4.43;3.33;;;11.40;99.90;;;;;;5030371;28;20022;-79
2023/07/07 00:50:58;;;;;;;3.85;3.30;;;11.40;99.90;;;;;;5030486;28;20682;-78
2023/07/07 00:53:25;;;;;;;6.13;4.30;;;11.40;99.90;;;;;;5032507;28;20043;-79
2023/07/07 00:56:00;;;;;;;4.90;3.63;;;11.40;99.90;;;;;;5032398;28;20025;-80
2023/07/07 00:58:26;;;;;;;4.25;3.75;;;11.30;99.90;;;;;;5030507;28;20386;-83
2023/07/07 01:00:59;;;;;;;3.78;3.38;;;11.30;99.90;;;;;;5031527;28;20091;-82
2023/07/07 01:03:46;;;;;;;6.43;4.60;;;11.30;99.90;;;;;;5031738;28;20030;-81
2023/07/07 01:06:16;;;;;;;5.70;4.45;;;11.30;99.90;;;;;;5031670;28;20017;-81
2023/07/07 01:08:44;;;;;;;4.43;3.90;;;11.30;99.90;;;;;;5031578;28;20026;-81
2023/07/07 01:11:10;;;;;;;3.85;3.55;;;11.20;99.90;;;;;;5031846;28;20040;-81
2023/07/07 01:13:36;;;;;;;5.47;4.15;;;11.20;99.90;;;;;;5031693;28;20018;-79
2023/07/07 01:16:29;;;;;;;4.38;3.58;;;11.20;99.90;;;;;;5031455;28;20028;-79
2023/07/07 01:19:01;;;;;;;5.65;4.55;;;11.10;99.90;;;;;;5031557;28;20025;-83
2023/07/07 01:21:36;;;;;;;5.13;3.70;;;11.10;99.90;;;;;;5031483;28;20413;-79
2023/07/07 01:24:19;;;;;;;4.57;3.92;;;11.10;99.90;;;;;;5030157;28;20021;-82
2023/07/07 01:27:22;;;;;;;5.97;3.80;;;11.10;99.90;;;;;;5031425;28;20025;-82
2023/07/07 01:29:55;;;;;;;8.18;3.58;;;11.10;99.90;;;;;;5031333;28;20022;-83
2023/07/07 01:32:24;;;;;;;3.67;2.90;;;11.00;99.90;;;;;;5031241;28;20049;-82
2023/07/07 01:34:56;;;;;;;4.40;3.17;;;10.90;99.90;;;;;;5031144;28;20075;-82
2023/07/07 01:37:21;;;;;;;3.80;2.88;;;10.90;99.90;;;;;;5029901;28;20013;-82
2023/07/07 01:39:49;;;;;;;3.47;3.17;;;10.90;99.90;;;;;;5029031;28;20360;-79
2023/07/07 01:42:29;;;;;;;6.35;3.95;;;10.80;99.90;;;;;;5031117;28;20049;-82
2023/07/07 01:45:18;;;;;;;4.85;4.03;;;10.80;99.90;;;;;;5029829;28;20037;-82
2023/07/07 01:47:55;;;;;;;9.00;2.70;;;10.80;99.90;;;;;;5029768;28;20036;-79
2023/07/07 01:50:27;;;;;;;3.53;2.50;;;10.70;99.90;;;;;;5030844;28;20025;-79
2023/07/07 01:53:01;;;;;;;3.17;2.88;;;10.70;99.90;;;;;;5030987;28;20440;-79
2023/07/07 01:55:35;;;;;;;2.30;2.10;;;10.60;99.90;;;;;;5031255;28;20029;-81
2023/07/07 01:58:04;;;;;;;3.03;2.45;;;10.60;99.90;;;;;;5029915;28;20113;-81
2023/07/07 02:00:31;;;;;;;2.60;2.40;;;10.50;99.90;;;;;;5031476;28;20036;-78
2023/07/07 02:02:59;;;;;;;2.92;2.63;;;10.50;99.90;;;;;;5030831;28;20032;-78
2023/07/07 02:05:26;;;;;;;2.97;2.67;;;10.60;99.90;;;;;;5029449;28;20021;-81
2023/07/07 02:07:51;;;;;;;3.55;2.55;;;10.50;99.90;;;;;;5029575;28;20025;-81
2023/07/07 02:10:17;;;;;;;2.60;2.40;;;10.50;99.90;;;;;;5030909;28;20021;-78
2023/07/07 02:12:43;;;;;;;2.70;2.40;;;10.50;99.90;;;;;;5030512;28;20121;-81
2023/07/07 02:15:08;;;;;;;3.25;2.95;;;10.50;99.90;;;;;;5029448;28;20091;-80
2023/07/07 02:17:34;;;;;;;2.17;2.08;;;10.40;99.90;;;;;;5030559;28;20022;-78
2023/07/07 02:20:00;;;;;;;2.20;1.98;;;10.40;99.90;;;;;;5030672;28;20028;-81
2023/07/07 02:22:26;;;;;;;2.65;2.20;;;10.40;99.90;;;;;;5030420;28;20460;-78
2023/07/07 02:24:51;;;;;;;4.55;2.60;;;10.40;99.90;;;;;;5029246;28;20060;-78
2023/07/07 02:27:17;;;;;;;4.32;2.95;;;10.40;99.90;;;;;;5030449;28;20026;-81
2023/07/07 02:29:43;;;;;;;8.05;3.40;;;10.40;99.90;;;;;;5030383;28;20029;-78
2023/07/07 02:32:09;;;;;;;5.90;3.70;;;10.40;99.90;;;;;;5029000;28;20185;-81
2023/07/07 02:34:35;;;;;;;9.57;3.35;;;10.40;99.90;;;;;;5029040;28;20021;-81
2023/07/07 02:37:01;;;;;;;3.65;3.15;;;10.50;99.90;;;;;;5028997;28;20028;-78
2023/07/07 02:39:27;;;;;;;5.18;3.53;;;10.40;99.90;;;;;;5030364;28;20033;-78
2023/07/07 02:41:53;;;;;;;5.45;3.92;;;10.40;99.90;;;;;;5028945;28;20506;-78
2023/07/07 02:44:18;;;;;;;8.82;3.72;;;10.40;99.90;;;;;;5030300;28;20029;-82
2023/07/07 02:46:44;;;;;;;5.43;4.22;;;10.40;99.90;;;;;;5030133;28;20025;-79
2023/07/07 02:49:10;;;;;;;3.70;3.17;;;10.40;99.90;;;;;;5030127;28;20075;-81
2023/07/07 02:51:36;;;;;;;6.32;3.58;;;10.40;99.90;;;;;;5033547;28;20114;-78
2023/07/07 02:54:02;;;;;;;4.55;3.72;;;10.40;99.90;;;;;;5032441;28;20470;-78
2023/07/07 02:56:27;;;;;;;5.35;3.38;;;10.40;99.90;;;;;;5032364;28;20017;-78
2023/07/07 02:58:53;;;;;;;5.07;4.30;;;10.40;99.90;;;;;;5032431;28;20104;-79
2023/07/07 03:01:20;;;;;;;4.03;3.60;;;10.40;99.90;;;;;;5032289;28;20082;-79
2023/07/07 03:03:48;;;;;;;3.53;3.22;;;10.40;99.90;;;;;;5033609;28;20352;-79
2023/07/07 03:06:18;;;;;;;6.43;3.30;;;10.40;99.90;;;;;;5033429;28;20044;-78
2023/07/07 03:08:44;;;;;;;3.78;3.13;;;10.40;99.90;;;;;;5032226;28;20368;-82
2023/07/07 03:11:12;;;;;;;2.63;2.35;;;10.40;99.90;;;;;;5031896;28;20033;-79
2023/07/07 03:13:38;;;;;;;2.63;2.17;;;10.30;99.90;;;;;;5032158;28;20049;-78
2023/07/07 03:16:14;;;;;;;3.75;2.03;;;10.30;99.90;;;;;;5033238;28;20083;-81
2023/07/07 03:18:41;;;;;;;2.20;2.00;;;10.30;99.90;;;;;;5032145;28;20108;-81
2023/07/07 03:21:08;;;;;;;2.60;2.30;;;10.30;99.90;;;;;;5033396;28;20412;-81
2023/07/07 03:23:34;;;;;;;4.63;2.95;;;10.30;99.90;;;;;;5033889;28;20022;-81
2023/07/07 03:26:11;;;;;;;4.53;2.70;;;10.40;99.90;;;;;;5033790;28;20022;-79
2023/07/07 03:28:37;;;;;;;2.88;2.67;;;10.60;99.90;;;;;;5032726;28;20030;-82
2023/07/07 03:31:11;;;;;;;4.28;2.72;;;10.70;99.90;;;;;;5031679;28;20030;-79
2023/07/07 03:33:39;;;;;;;2.03;1.92;;;10.80;99.90;;;;;;5031829;28;20029;-79
2023/07/07 03:36:05;;;;;;;1.90;1.80;;;11.00;99.90;;;;;;5032909;28;20390;-79
2023/07/07 03:38:31;;;;;;;3.80;2.03;;;11.30;99.90;;;;;;5031804;28;20029;-79
2023/07/07 03:40:57;;;;;;;2.00;1.90;;;11.40;99.90;;;;;;5032822;28;20406;-78
2023/07/07 03:43:22;;;;;;;1.90;1.77;;;11.50;99.90;;;;;;5033108;28;20028;-78
2023/07/07 03:45:48;;;;;;;2.92;2.08;;;11.70;99.90;;;;;;5031603;28;20374;-82
2023/07/07 03:48:13;;;;;;;2.63;2.28;;;11.90;99.90;;;;;;5031826;28;20484;-82
2023/07/07 03:50:39;;;;;;;2.72;2.38;;;12.00;99.90;;;;;;5032721;28;20025;-78
2023/07/07 03:53:05;;;;;;;4.43;2.65;;;12.20;99.90;;;;;;5031526;28;20032;-82
2023/07/07 03:55:30;;;;;;;2.42;2.22;;;12.30;99.90;;;;;;5032761;28;20034;-82
2023/07/07 03:57:58;;;;;;;6.20;2.45;;;12.50;99.90;;;;;;5031316;28;20029;-80
2023/07/07 04:00:24;;;;;;;3.03;2.00;;;12.70;99.90;;;;;;5031423;28;20124;-84
2023/07/07 04:02:49;;;;;;;4.00;3.17;;;12.80;99.90;;;;;;5030598;28;20136;-80
2023/07/07 04:05:15;;;;;;;2.95;2.55;;;13.10;99.90;;;;;;5031321;28;20028;-80
2023/07/07 04:07:41;;;;;;;4.85;2.88;;;13.20;99.90;;;;;;5031160;28;20109;-80
2023/07/07 04:10:08;;;;;;;5.32;2.88;;;13.50;99.90;;;;;;5031207;28;20030;-84
2023/07/07 04:12:34;;;;;;;5.72;2.80;;;13.60;99.90;;;;;;5031131;28;20038;-83
2023/07/07 04:15:00;;;;;;;6.10;3.97;;;13.80;99.90;;;;;;5031154;28;20104;-80
2023/07/07 04:17:26;;;;;;;4.78;3.10;;;13.90;99.90;;;;;;5038739;28;20021;-80
2023/07/07 04:19:52;;;;;;;3.30;3.00;;;14.00;99.90;;;;;;5044923;28;20017;-83
2023/07/07 04:22:18;;;;;;;4.57;3.17;;;14.10;99.90;;;;;;5050377;28;20025;-80
2023/07/07 04:24:44;;;;;;;3.55;3.25;;;14.20;99.90;;;;;;5038552;28;20116;-80
2023/07/07 04:27:09;;;;;;;4.68;3.40;;;14.30;99.90;;;;;;5033346;28;20025;-80
2023/07/07 04:29:36;;;;;;;3.97;3.45;;;14.50;99.90;;;;;;5044083;28;20021;-80
2023/07/07 04:32:03;;;;;;;4.78;3.92;;;14.60;99.90;;;;;;5039178;28;20034;-83
2023/07/07 04:34:30;;;;;;;4.75;3.53;;;14.80;99.90;;;;;;5039559;28;20022;-84
2023/07/07 04:36:56;;;;;;;4.10;3.70;;;15.00;99.90;;;;;;5040182;28;20591;-83
2023/07/07 04:39:21;;;;;;;4.43;3.55;;;15.20;99.90;;;;;;5051821;28;20037;-80
2023/07/07 04:41:50;;;;;;;6.47;3.63;;;15.50;99.90;;;;;;5045492;28;21550;-82
2023/07/07 04:44:16;;;;;;;7.30;4.30;;;15.60;99.90;;;;;;5045153;28;20017;-83
2023/07/07 04:46:41;;;;;;;6.68;4.63;;;15.70;99.90;;;;;;5040725;28;20126;-83
2023/07/07 04:49:08;;;;;;;4.40;4.00;;;15.90;99.90;;;;;;5040790;28;20471;-81
2023/07/07 04:51:41;;;;;;;7.10;4.93;;;16.00;99.90;;;;;;5037571;28;20045;-83
2023/07/07 04:54:11;;;;;;;5.63;4.40;;;16.10;99.90;;;;;;5041480;28;20018;-83
2023/07/07 04:56:36;;;;;;;7.75;4.55;;;16.20;99.90;;;;;;5039209;28;20112;-80
2023/07/07 04:59:03;;;;;;;6.13;4.65;;;16.30;99.90;;;;;;5041365;28;20575;-82
2023/07/07 05:01:30;;;;;;;5.18;4.65;;;16.30;99.90;;;;;;5040719;28;20029;-84
2023/07/07 05:03:58;;;;;;;5.03;4.13;;;16.30;99.90;;;;;;5035006;28;20029;-84
2023/07/07 05:06:26;;;;;;;6.72;5.30;;;16.30;99.90;;;;;;5037671;28;20029;-83
2023/07/07 05:08:52;;;;;;;6.55;5.22;;;16.30;99.90;;;;;;5044376;28;20029;-81
2023/07/07 05:11:20;;;;;;;7.13;5.95;;;16.40;99.90;;;;;;5047166;28;20127;-86
2023/07/07 05:13:48;;;;;;;6.53;4.72;;;16.50;99.90;;;;;;5052433;28;20021;-84
2023/07/07 05:16:17;;;;;;;5.90;5.28;;;16.50;99.90;;;;;;5051295;28;20447;-80
2023/07/07 05:18:43;;;;;;;8.32;5.72;;;16.60;99.90;;;;;;5050026;28;20037;-83
2023/07/07 05:21:11;;;;;;;6.25;5.60;;;16.70;99.90;;;;;;5044426;28;20013;-84
2023/07/07 05:23:37;;;;;;;7.70;5.47;;;16.70;99.90;;;;;;5037782;28;20045;-83
2023/07/07 05:26:03;;;;;;;7.80;6.03;;;16.80;99.90;;;;;;5029992;28;20053;-80
2023/07/07 05:28:29;;;;;;;8.02;5.82;;;16.90;99.90;;;;;;5031386;28;20021;-80
2023/07/07 05:30:54;;;;;;;10.57;6.22;;;16.90;99.90;;;;;;5032437;28;20087;-81
2023/07/07 05:33:21;;;;;;;8.45;6.18;;;17.00;99.90;;;;;;5051082;28;20060;-80
2023/07/07 05:35:55;;;;;;;10.57;6.03;;;17.20;99.90;;;;;;5047830;28;20021;-79
2023/07/07 05:38:23;;;;;;;11.90;5.82;;;17.30;99.90;;;;;;5029734;28;20479;-79
2023/07/07 05:40:50;;;;;;;6.68;5.55;;;17.40;99.90;;;;;;5026346;28;20088;-81
2023/07/07 05:43:17;;;;;;;7.32;5.57;;;17.60;99.90;;;;;;5028308;28;20025;-79
2023/07/07 05:45:43;;;;;;;7.20;5.38;;;17.60;99.90;;;;;;5028091;28;20034;-81
2023/07/07 05:48:10;;;;;;;6.88;5.05;;;17.70;99.90;;;;;;5026598;28;20079;-81
2023/07/07 05:50:38;;;;;;;6.57;5.07;;;17.90;99.90;;;;;;5028166;28;20041;-81
2023/07/07 05:53:04;;;;;;;9.18;4.93;;;18.10;99.90;;;;;;5026438;28;20038;-81
2023/07/07 05:55:32;;;;;;;6.82;4.75;;;18.30;99.90;;;;;;5026414;28;20574;-80
2023/07/07 05:57:59;;;;;;;7.35;5.45;;;18.40;99.00;;;;;;5025576;28;20181;-79
2023/07/07 06:00:27;;;;;;;8.00;4.82;;;18.60;96.60;;;;;;5028141;28;20032;-80
2023/07/07 06:02:53;;;;;;;6.35;4.75;;;18.80;95.00;;;;;;5028512;28;20025;-81
2023/07/07 06:05:18;;;;;;;6.82;5.05;;;18.90;91.80;;;;;;5026886;28;20022;-80
2023/07/07 06:07:46;;;;;;;8.73;4.88;;;19.10;90.30;;;;;;5029447;28;20479;-80
2023/07/07 06:10:12;;;;;;;12.98;5.13;;;19.20;86.30;;;;;;5030084;28;20364;-80
2023/07/07 06:12:38;;;;;;;6.57;4.32;;;19.40;84.00;;;;;;5029658;28;20037;-81
2023/07/07 06:15:05;;;;;;;7.10;4.85;;;19.50;84.30;;;;;;5027390;28;20620;-80
2023/07/07 06:17:31;;;;;;;6.85;4.78;;;19.60;83.30;;;;;;5027422;28;20378;-80
2023/07/07 06:19:56;;;;;;;7.32;4.47;;;19.70;80.50;;;;;;5027380;28;20502;-81
2023/07/07 06:22:22;;;;;;;6.25;4.72;;;19.90;82.70;;;;;;5027485;28;20063;-77
2023/07/07 06:24:48;;;;;;;7.45;4.65;;;20.10;78.70;;;;;;5028490;28;20022;-79
2023/07/07 06:27:13;;;;;;;6.90;4.45;;;20.30;76.80;;;;;;5027675;28;20025;-78
2023/07/07 06:29:39;;;;;;;6.72;4.43;;;20.50;76.90;;;;;;5040228;28;20031;-78
2023/07/07 06:32:05;;;;;;;5.30;4.13;;;20.80;77.00;;;;;;5048508;28;20029;-78
2023/07/07 06:34:31;;;;;;;6.97;4.68;;;20.90;74.80;;;;;;5048672;28;20052;-79
2023/07/07 06:36:56;;;;;;;8.90;4.15;;;21.00;74.80;;;;;;5049886;28;20019;-79
2023/07/07 06:39:22;;;;;;;6.95;3.80;;;21.20;71.70;;;;;;5049946;28;20035;-79
2023/07/07 06:41:47;;;;;;;6.75;4.35;;;21.50;68.40;;;;;;5049769;28;20057;-79
2023/07/07 06:44:13;;;;;;;9.90;3.60;;;21.70;66.30;;;;;;5048391;28;20115;-79
2023/07/07 06:46:39;;;;;;;2.65;2.40;;;21.80;63.10;;;;;;5050116;28;20032;-79
2023/07/07 06:49:04;;;;;;;4.43;2.80;;;21.90;58.70;;;;;;5045792;28;20022;-79
2023/07/07 06:51:31;;;;;;;3.80;2.35;;;21.90;54.50;;;;;;5048382;28;20497;-79
2023/07/07 06:53:57;;;;;;;13.35;3.58;;;22.10;56.10;;;;;;5048384;28;20111;-79
2023/07/07 06:56:23;;;;;;;4.20;2.42;;;22.30;56.20;;;;;;5049716;28;20434;-79
2023/07/07 06:58:49;;;;;;;3.72;2.78;;;22.40;54.30;;;;;;5048356;28;20135;-79
2023/07/07 07:01:16;;;;;;;3.90;2.65;;;22.40;53.90;;;;;;5048534;28;20611;-79
2023/07/07 07:03:43;;;;;;;3.15;2.85;;;22.60;53.60;;;;;;5049559;28;20108;-78
2023/07/07 07:06:09;;;;;;;4.85;2.47;;;22.60;52.70;;;;;;5048225;28;20386;-79
2023/07/07 07:08:35;;;;;;;5.25;2.90;;;22.60;52.30;;;;;;5049513;28;20482;-79
2023/07/07 07:11:00;;;;;;;6.85;2.72;;;22.60;52.90;;;;;;5049391;28;20033;-79
2023/07/07 07:13:26;;;;;;;2.63;2.33;;;22.50;52.30;;;;;;5048469;28;20437;-79
2023/07/07 07:15:52;;;;;;;6.03;3.15;;;22.70;52.60;;;;;;5048041;28;20028;-79
2023/07/07 07:18:17;;;;;;;4.68;2.70;;;22.60;52.50;;;;;;5048196;28;20025;-79
2023/07/07 07:20:47;;;;;;;3.28;2.40;;;22.60;52.70;;;;;;5049412;28;20033;-79
2023/07/07 07:23:13;;;;;;;3.95;3.25;;;22.70;52.00;;;;;;5048147;28;20032;-78
2023/07/07 07:25:38;;;;;;;3.88;2.55;;;22.80;52.50;;;;;;5048075;28;20020;-79
2023/07/07 07:28:04;;;;;;;3.78;2.90;;;22.80;50.40;;;;;;5048032;28;20381;-79
2023/07/07 07:30:30;;;;;;;5.45;2.78;;;23.00;52.50;;;;;;5048131;28;20022;-79
2023/07/07 07:32:58;;;;;;;4.85;2.33;;;22.90;51.40;;;;;;5047909;28;20029;-78
2023/07/07 07:35:23;;;;;;;5.47;2.10;;;22.90;49.80;;;;;;5048026;28;20016;-79
2023/07/07 07:37:49;;;;;;;2.50;2.30;;;22.90;48.50;;;;;;5051305;28;20021;-79
2023/07/07 07:40:15;;;;;;;3.00;2.47;;;23.10;49.20;;;;;;5052473;28;20028;-79
2023/07/07 07:42:40;;;;;;;4.53;2.50;;;23.10;47.50;;;;;;5051397;28;20026;-79
2023/07/07 07:45:07;;;;;;;3.50;2.58;;;23.20;48.20;;;;;;5052622;28;20470;-79
2023/07/07 07:47:34;;;;;;;3.97;2.50;;;23.10;47.30;;;;;;5052378;28;20021;-80
2023/07/07 07:49:59;;;;;;;10.05;3.13;;;23.40;47.60;;;;;;5052075;28;20025;-79
2023/07/07 07:52:25;;;;;;;5.57;2.40;;;23.40;46.90;;;;;;5052330;28;20037;-80
2023/07/07 07:54:50;;;;;;;2.75;2.30;;;23.40;46.40;;;;;;5051212;28;20032;-79
2023/07/07 07:57:17;;;;;;;2.47;2.25;;;23.70;46.80;;;;;;5052331;28;20062;-79
2023/07/07 07:59:43;;;;;;;5.07;3.60;;;23.70;45.90;;;;;;5050920;28;20466;-79
2023/07/07 08:02:12;;;;;;;3.50;2.47;;;23.60;45.70;;;;;;5052255;28;20017;-80
2023/07/07 08:04:37;;;;;;;3.40;2.50;;;23.80;45.20;;;;;;5050929;28;20112;-80
2023/07/07 08:07:03;;;;;;;12.80;3.35;;;23.80;44.30;;;;;;5052100;28;20051;-80
2023/07/07 08:09:29;;;;;;;6.38;2.38;;;23.80;44.00;;;;;;5050911;28;20477;-80
2023/07/07 08:11:57;;;;;;;19.70;5.22;;;24.10;45.60;;;;;;5052222;28;20037;-81
2023/07/07 08:14:30;;;;;;;20.23;4.03;;;24.10;44.10;;;;;;5050908;28;20029;-80
2023/07/07 08:16:57;;;;;;;2.10;1.90;;;24.30;44.80;;;;;;5052179;28;20025;-80
2023/07/07 08:19:23;;;;;;;3.42;2.25;;;24.30;43.50;;;;;;5051958;28;20496;-80
2023/07/07 08:21:48;;;;;;;4.47;2.60;;;24.40;44.90;;;;;;5051792;28;20021;-80
2023/07/07 08:24:14;;;;;;;5.82;2.50;;;24.30;43.90;;;;;;5051830;28;20040;-80
2023/07/07 08:26:40;;;;;;;40.90;21.25;;;24.00;44.70;;;;;;5050440;28;20029;-81
2023/07/07 08:29:07;;;;;;;13.10;7.13;;;23.80;45.90;;;;;;5050540;28;20474;-80
2023/07/07 08:31:32;;;;;;;16.85;8.70;;;23.50;46.80;;;;;;5050420;28;20036;-80
2023/07/07 08:33:58;;;;;;;11.50;6.97;;;23.20;46.60;;;;;;5051673;28;20021;-80
2023/07/07 08:36:24;;;;;;;15.43;3.63;;;23.50;47.50;;;;;;5050445;28;20025;-80
2023/07/07 08:38:50;;;;;;;9.05;2.42;;;23.90;46.90;;;;;;5051743;28;20048;-80
2023/07/07 08:41:16;;;;;;;2.58;1.73;;;23.90;46.70;;;;;;5051398;28;20048;-79
2023/07/07 08:43:44;;;;;;;25.17;3.60;;;24.00;45.30;;;;;;5051742;28;20025;-80
2023/07/07 08:46:38;;;;;;;4.00;1.95;;;24.10;45.50;;;;;;5050446;28;20041;-79
2023/07/07 08:49:22;;;;;;;3.60;2.67;;;24.40;45.00;;;;;;5050108;28;20125;-80
2023/07/07 08:51:57;;;;;;;2.92;1.90;;;24.10;45.10;;;;;;5050231;28;20561;-80
2023/07/07 08:54:32;;;;;;;3.28;1.83;;;24.30;45.20;;;;;;5050498;28;20112;-80
2023/07/07 08:57:03;;;;;;;4.60;2.10;;;23.90;43.10;;;;;;5050334;28;20028;-81
2023/07/07 08:59:57;;;;;;;3.72;1.95;;;23.70;43.50;;;;;;5050304;28;20025;-80
2023/07/07 09:02:44;;;;;;;4.15;2.35;;;23.80;42.40;;;;;;5050373;28;20078;-80
2023/07/07 09:05:25;;;;;;;2.42;2.03;;;23.90;44.40;;;;;;5051487;28;20029;-80
2023/07/07 09:08:00;;;;;;;3.78;2.03;;;23.70;40.70;;;;;;5051304;28;20021;-80
2023/07/07 09:11:08;;;;;;;6.97;2.75;;;23.70;41.80;;;;;;5051354;28;20025;-80
2023/07/07 09:13:36;;;;;;;5.20;2.35;;;23.30;43.80;;;;;;5028611;28;20173;-80
2023/07/07 09:16:05;;;;;;;3.33;2.10;;;23.10;44.40;;;;;;5051070;28;20465;-80
2023/07/07 09:18:37;;;;;;;2.33;1.90;;;23.00;44.60;;;;;;5051131;28;20097;-80
2023/07/07 09:21:05;;;;;;;1.60;1.50;;;23.00;45.00;;;;;;5051148;28;20117;-79
2023/07/07 09:23:34;;;;;;;2.28;1.95;;;22.80;44.90;;;;;;5051395;28;20389;-79
2023/07/07 09:26:02;;;;;;;2.65;1.83;;;23.00;45.40;;;;;;5050916;28;20511;-79
2023/07/07 09:28:33;;;;;;;4.18;2.58;;;23.10;44.50;;;;;;5051007;28;20052;-79
2023/07/07 09:31:16;;;;;;;3.67;2.05;;;23.10;44.80;;;;;;5049697;28;20025;-79
2023/07/07 09:33:41;;;;;;;3.22;1.90;;;23.50;45.20;;;;;;5049691;28;20029;-79
2023/07/07 09:36:17;;;;;;;1.40;1.30;;;23.90;45.40;;;;;;5050900;28;20469;-79
2023/07/07 09:39:01;;;;;;;4.55;2.42;;;24.00;43.20;;;;;;5050923;28;20048;-79
2023/07/07 09:42:04;;;;;;;4.20;2.10;;;24.00;45.50;;;;;;5050953;28;20569;-79
2023/07/07 09:45:01;;;;;;;4.53;2.22;;;24.50;47.20;;;;;;5049832;28;20028;-79
2023/07/07 09:47:41;;;;;;;3.00;2.30;;;25.20;47.80;;;;;;5051029;28;20025;-79
2023/07/07 09:50:24;;;;;;;3.25;2.30;;;24.80;46.00;;;;;;5050896;28;20108;-82
2023/07/07 09:53:08;;;;;;;;;;;24.30;42.90;;;;;;5051340;28;20029;-82
2023/07/07 09:55:36;;;;;;;1.73;1.58;;;24.00;43.70;;;;;;5050806;28;19904;-81
2023/07/07 09:58:18;;;;;;;4.90;2.28;;;23.60;45.30;;;;;;5050688;28;20381;-78
2023/07/07 10:00:49;;;;;;;3.80;2.15;;;23.40;45.50;;;;;;5049758;28;20033;-79
2023/07/07 10:03:36;;;;;;;2.35;2.03;;;23.20;45.70;;;;;;5049592;28;20497;-78
2023/07/07 10:06:06;;;;;;;3.63;1.70;;;23.10;45.80;;;;;;5049287;28;20021;-78
2023/07/07 10:08:31;;;;;;;2.40;1.73;;;23.10;46.10;;;;;;5050890;28;20025;-78
2023/07/07 10:11:22;;;;;;;3.40;2.42;;;23.40;45.90;;;;;;5049244;28;20435;-78
2023/07/07 10:13:52;;;;;;;2.90;2.00;;;23.90;46.00;;;;;;5046137;28;20033;-79
2023/07/07 10:16:30;;;;;;;3.40;2.92;;;24.30;44.50;;;;;;5049357;28;20534;-79
2023/07/07 10:19:09;;;;;;;1.40;1.30;;;24.60;43.70;;;;;;5049317;28;20025;-79
2023/07/07 10:21:35;;;;;;;6.38;1.95;;;24.60;40.50;;;;;;5049160;28;20524;-79
2023/07/07 10:24:00;;;;;;;2.10;1.67;;;24.50;41.40;;;;;;5044670;28;20474;-79
2023/07/07 10:26:26;;;;;;;5.07;1.83;;;24.40;44.20;;;;;;5029255;28;20029;-79
2023/07/07 10:28:54;;;;;;;2.00;1.75;;;24.20;43.00;;;;;;5029119;28;20026;-79
2023/07/07 10:31:23;;;;;;;1.52;1.42;;;24.30;43.20;;;;;;5030373;28;20041;-79
2023/07/07 10:33:55;;;;;;;3.28;2.00;;;24.20;42.50;;;;;;5029053;28;20025;-79
2023/07/07 10:36:32;;;;;;;3.25;1.83;;;24.00;42.70;;;;;;5029165;28;20025;-80
2023/07/07 10:38:58;;;;;;;2.15;1.50;;;23.80;42.20;;;;;;5030241;28;20553;-80
2023/07/07 10:41:26;;;;;;;2.67;2.25;;;23.70;42.80;;;;;;5028957;28;20049;-79
2023/07/07 10:43:52;;;;;;;3.05;1.83;;;23.80;42.60;;;;;;5030500;28;20034;-79
2023/07/07 10:46:18;;;;;;;2.15;1.70;;;24.10;42.90;;;;;;5029257;28;20026;-79
2023/07/07 10:48:44;;;;;;;4.03;1.80;;;24.50;43.30;;;;;;5029120;28;20373;-79
2023/07/07 10:51:15;;;;;;;2.33;1.77;;;25.00;42.80;;;;;;5028975;28;20051;-79
2023/07/07 10:53:56;;;;;;;5.10;2.13;;;25.00;41.80;;;;;;5030559;28;20097;-79
2023/07/07 10:56:29;;;;;;;3.95;1.77;;;25.00;40.90;;;;;;5030224;28;20021;-80
2023/07/07 10:59:32;;;;;;;2.50;1.80;;;24.80;41.00;;;;;;5028824;28;20022;-80
2023/07/07 11:01:57;;;;;;;;;;;24.60;39.80;;;;;;5028867;28;20022;-79
2023/07/07 11:04:52;;;;;;;2.30;1.67;;;24.70;41.40;;;;;;5030274;28;20440;-80
2023/07/07 11:07:41;;;;;;;2.22;1.50;;;24.50;40.10;;;;;;5030065;28;20030;-79
2023/07/07 11:10:28;;;;;;;2.00;1.85;;;24.10;40.80;;;;;;5028719;28;20030;-79
2023/07/07 11:13:11;;;;;;;1.73;1.63;;;24.00;40.60;;;;;;5032193;28;20041;-79
2023/07/07 11:16:18;;;;;;;2.35;1.63;;;24.30;40.60;;;;;;5033418;28;20060;-79
2023/07/07 11:18:55;;;;;;;3.28;1.77;;;24.80;40.30;;;;;;5033671;28;20061;-80
2023/07/07 11:21:56;;;;;;;2.35;1.65;;;25.00;41.40;;;;;;5032249;28;20033;-80
2023/07/07 11:24:46;;;;;;;6.72;2.10;;;25.20;40.00;;;;;;5032178;28;20021;-80
2023/07/07 11:27:17;;;;;;;4.60;2.70;;;25.40;38.80;;;;;;5032075;28;20036;-79
2023/07/07 11:30:14;;;;;;;2.63;1.87;;;25.80;40.90;;;;;;5030382;28;20050;-80
2023/07/07 11:32:40;;;;;;;1.80;1.70;;;25.90;40.30;;;;;;5029902;28;20340;-79
2023/07/07 11:35:17;;;;;;;4.05;1.80;;;25.50;39.80;;;;;;5031197;28;20479;-79
2023/07/07 11:37:51;;;;;;;3.25;1.60;;;25.30;40.40;;;;;;5030835;28;20025;-80
2023/07/07 11:40:40;;;;;;;2.17;1.77;;;25.60;40.20;;;;;;5030545;28;20025;-79
2023/07/07 11:43:27;;;;;;;2.53;1.70;;;25.60;40.70;;;;;;5030895;28;20021;-80
2023/07/07 11:45:55;;;;;;;2.45;1.65;;;25.80;40.00;;;;;;5031025;28;20030;-79
2023/07/07 11:48:24;;;;;;;6.57;2.22;;;25.40;39.90;;;;;;5029872;28;20089;-79
2023/07/07 11:51:14;;;;;;;2.25;1.80;;;25.20;40.30;;;;;;5029805;28;20022;-79
2023/07/07 11:54:09;;;;;;;1.80;1.58;;;25.00;40.30;;;;;;5032487;28;20040;-79
2023/07/07 11:57:09;;;;;;;2.78;1.83;;;24.90;41.30;;;;;;5036734;28;20108;-79
2023/07/07 11:59:58;;;;;;;2.00;1.80;;;24.70;40.60;;;;;;5032828;28;20053;-79
2023/07/07 12:03:00;;;;;;;2.05;1.55;;;24.70;40.20;;;;;;5032768;28;20041;-79
2023/07/07 12:05:31;;;;;;;2.33;2.08;;;24.60;40.10;;;;;;5032282;28;20067;-79
2023/07/07 12:08:03;;;;;;;2.28;1.75;;;24.70;39.80;;;;;;5031666;28;20490;-80
2023/07/07 12:10:30;;;;;;;;;;;24.70;40.40;;;;;;5031907;28;20033;-78
2023/07/07 12:13:05;;;;;;;1.63;1.52;;;24.90;39.20;;;;;;5032608;28;19919;-79
2023/07/07 12:15:39;;;;;;;3.20;1.88;;;25.10;39.00;;;;;;5032713;28;20028;-79
2023/07/07 12:18:10;;;;;;;2.50;1.70;;;25.20;38.60;;;;;;5031356;28;20021;-80
2023/07/07 12:20:45;;;;;;;3.40;1.50;;;25.10;38.50;;;;;;5032374;28;20029;-80
2023/07/07 12:23:15;;;;;;;2.08;1.60;;;25.10;37.80;;;;;;5030708;28;20029;-79
2023/07/07 12:25:41;;;;;;;1.67;1.50;;;24.50;37.90;;;;;;5032533;28;20090;-79
2023/07/07 12:28:08;;;;;;;2.42;1.90;;;24.60;38.00;;;;;;5032489;28;20025;-79
2023/07/07 12:30:46;;;;;;;3.85;2.10;;;24.60;38.20;;;;;;5032342;28;20386;-79
2023/07/07 12:33:14;;;;;;;2.92;2.00;;;25.00;38.20;;;;;;5031222;28;20044;-79
2023/07/07 12:35:56;;;;;;;2.42;1.70;;;25.10;37.40;;;;;;5032698;28;20034;-79
2023/07/07 12:38:28;;;;;;;2.10;1.75;;;25.50;38.30;;;;;;5031364;28;20017;-79
2023/07/07 12:40:56;;;;;;;3.00;1.70;;;25.70;38.20;;;;;;5030950;28;20132;-79
2023/07/07 12:43:36;;;;;;;3.70;2.22;;;25.80;38.90;;;;;;5032299;28;20257;-79
2023/07/07 12:46:15;;;;;;;5.32;1.88;;;25.60;38.80;;;;;;5032144;28;20026;-79
2023/07/07 12:48:45;;;;;;;2.35;1.73;;;25.50;38.30;;;;;;5032218;28;20028;-79
2023/07/07 12:51:12;;;;;;;2.25;1.42;;;25.10;38.70;;;;;;5030728;28;20065;-78
2023/07/07 12:53:44;;;;;;;2.33;2.00;;;25.00;38.60;;;;;;5032333;28;20021;-79
2023/07/07 12:56:09;;;;;;;4.10;1.70;;;25.00;38.70;;;;;;5032240;28;20101;-79
2023/07/07 12:58:46;;;;;;;3.22;1.85;;;24.80;39.50;;;;;;5032129;28;20056;-79
2023/07/07 13:01:14;;;;;;;3.55;1.70;;;24.60;39.70;;;;;;5030651;28;20090;-79
2023/07/07 13:03:59;;;;;;;2.67;2.45;;;24.30;41.00;;;;;;5031910;28;20067;-79
2023/07/07 13:06:31;;;;;;;6.38;5.88;;;24.10;41.70;;;;;;5030478;28;20076;-79